createdAt,value
2023-01-17T00:01:34.531Z,79.99
2023-01-17T00:04:20.331Z,79.89
2023-01-17T00:07:06.206Z,79.64
2023-01-17T00:09:52.001Z,79.83
2023-01-17T00:12:22.324Z,79.80
2023-01-17T00:14:49.389Z,79.99
2023-01-17T00:17:16.520Z,80.07
2023-01-17T00:20:02.513Z,79.98
2023-01-17T00:22:49.321Z,79.86
2023-01-17T00:25:39.714Z,79.86
2023-01-17T00:28:06.962Z,79.82
2023-01-17T00:30:37.005Z,80.11
2023-01-17T00:33:04.125Z,79.99
2023-01-17T00:35:33.949Z,80.01
2023-01-17T00:38:07.547Z,80.06
2023-01-17T00:40:35.405Z,80.09
2023-01-17T00:43:21.212Z,79.95
2023-01-17T00:46:07.181Z,80.13
2023-01-17T00:48:52.986Z,80.22
2023-01-17T00:51:38.882Z,80.07
2023-01-17T00:54:24.761Z,80.15
2023-01-17T00:57:11.046Z,80.78
2023-01-17T00:59:56.933Z,80.45
2023-01-17T01:02:42.886Z,80.60
2023-01-17T01:05:28.817Z,80.63
2023-01-17T01:08:15.043Z,80.46
2023-01-17T01:11:01.826Z,80.58
2023-01-17T01:13:48.175Z,80.76
2023-01-17T01:16:34.570Z,81.00
2023-01-17T01:19:20.511Z,81.16
2023-01-17T01:22:06.506Z,80.74
2023-01-17T01:24:52.595Z,80.66
2023-01-17T01:27:38.381Z,80.08
2023-01-17T01:30:25.195Z,80.33
2023-01-17T01:33:10.996Z,80.13
2023-01-17T01:35:38.025Z,80.25
2023-01-17T01:38:05.071Z,79.88
2023-01-17T01:40:32.223Z,80.03
2023-01-17T01:43:00.111Z,80.11
2023-01-17T01:45:29.135Z,79.96
2023-01-17T01:48:05.795Z,80.10
2023-01-17T01:50:34.243Z,80.33
2023-01-17T01:53:02.298Z,80.29
2023-01-17T01:55:36.461Z,80.56
2023-01-17T01:58:09.208Z,80.21
2023-01-17T02:00:36.803Z,80.15
2023-01-17T02:03:12.325Z,80.52
2023-01-17T02:05:40.073Z,80.29
2023-01-17T02:08:41.592Z,80.47
2023-01-17T02:11:11.030Z,80.01
2023-01-17T02:13:38.080Z,80.07
2023-01-17T02:16:16.413Z,80.21
2023-01-17T02:18:51.338Z,80.15
2023-01-17T02:21:28.503Z,80.16
2023-01-17T02:24:27.304Z,79.98
2023-01-17T02:27:11.853Z,79.93
2023-01-17T02:29:57.757Z,79.93
2023-01-17T02:32:51.627Z,79.87
2023-01-17T02:35:22.641Z,80.09
2023-01-17T02:38:01.543Z,79.89
2023-01-17T02:40:36.242Z,79.85
2023-01-17T02:43:06.961Z,79.70
2023-01-17T02:45:34.110Z,79.42
2023-01-17T02:48:01.244Z,79.67
2023-01-17T02:50:35.061Z,79.14
2023-01-17T02:53:05.169Z,78.98
2023-01-17T02:56:06.105Z,78.97
2023-01-17T02:59:01.827Z,78.87
2023-01-17T03:01:53.842Z,78.57
2023-01-17T03:04:44.879Z,78.44
2023-01-17T03:07:16.535Z,78.68
2023-01-17T03:09:47.570Z,78.87
2023-01-17T03:12:14.920Z,78.56
2023-01-17T03:14:42.081Z,78.90
2023-01-17T03:17:09.321Z,78.52
2023-01-17T03:19:36.470Z,78.92
2023-01-17T03:22:03.625Z,78.97
2023-01-17T03:24:30.772Z,79.26
2023-01-17T03:26:57.925Z,79.01
2023-01-17T03:29:25.066Z,79.04
2023-01-17T03:31:52.224Z,79.28
2023-01-17T03:34:19.286Z,78.99
2023-01-17T03:36:46.423Z,79.06
2023-01-17T03:39:13.565Z,78.99
2023-01-17T03:41:40.628Z,79.12
2023-01-17T03:44:07.760Z,79.33
2023-01-17T03:46:34.908Z,79.12
2023-01-17T03:49:01.974Z,79.12
2023-01-17T03:51:29.106Z,79.52
2023-01-17T03:53:56.210Z,79.30
2023-01-17T03:56:23.507Z,79.26
2023-01-17T03:58:51.805Z,79.40
2023-01-17T04:01:19.465Z,79.47
2023-01-17T04:03:46.716Z,79.27
2023-01-17T04:06:13.953Z,79.40
2023-01-17T04:08:41.920Z,79.69
2023-01-17T04:11:08.976Z,79.99
2023-01-17T04:13:36.114Z,79.85
2023-01-17T04:16:04.337Z,80.07
2023-01-17T04:18:31.546Z,79.79
2023-01-17T04:20:58.588Z,79.71
2023-01-17T04:23:25.736Z,79.60
2023-01-17T04:25:52.818Z,79.97
2023-01-17T04:28:19.933Z,80.17
2023-01-17T04:30:47.137Z,79.63
2023-01-17T04:33:14.537Z,80.06
2023-01-17T04:35:41.765Z,80.12
2023-01-17T04:38:08.877Z,79.86
2023-01-17T04:40:36.196Z,79.91
2023-01-17T04:43:03.249Z,79.75
2023-01-17T04:45:30.493Z,79.82
2023-01-17T04:48:03.169Z,80.10
2023-01-17T04:50:30.324Z,79.68
2023-01-17T04:52:57.471Z,79.80
2023-01-17T04:55:24.533Z,80.18
2023-01-17T04:57:51.571Z,80.05
2023-01-17T05:00:19.332Z,80.09
2023-01-17T05:02:46.514Z,79.70
2023-01-17T05:05:13.832Z,79.87
2023-01-17T05:07:41.088Z,79.66
2023-01-17T05:10:08.980Z,79.65
2023-01-17T05:12:36.003Z,79.64
2023-01-17T05:15:03.555Z,79.48
2023-01-17T05:17:30.620Z,79.41
2023-01-17T05:19:57.757Z,79.42
2023-01-17T05:22:24.949Z,79.47
2023-01-17T05:24:52.068Z,79.47
2023-01-17T05:27:19.105Z,79.55
2023-01-17T05:29:46.191Z,79.47
2023-01-17T05:32:13.396Z,79.48
2023-01-17T05:34:40.647Z,79.30
2023-01-17T05:37:07.698Z,79.33
2023-01-17T05:39:34.933Z,79.14
2023-01-17T05:42:02.115Z,79.47
2023-01-17T05:44:29.245Z,79.43
2023-01-17T05:46:56.703Z,79.43
2023-01-17T05:49:23.961Z,79.38
2023-01-17T05:51:52.411Z,79.19
2023-01-17T05:54:21.326Z,78.98
2023-01-17T05:56:48.626Z,79.09
2023-01-17T05:59:17.317Z,78.88
2023-01-17T06:01:48.102Z,79.00
2023-01-17T06:04:15.297Z,79.10
2023-01-17T06:06:42.503Z,78.93
2023-01-17T06:09:10.679Z,78.99
2023-01-17T06:11:37.831Z,79.17
2023-01-17T06:14:04.975Z,79.11
2023-01-17T06:16:32.020Z,79.48
2023-01-17T06:18:59.076Z,79.31
2023-01-17T06:21:26.129Z,79.20
2023-01-17T06:23:55.621Z,79.10
2023-01-17T06:26:23.021Z,79.05
2023-01-17T06:28:50.123Z,78.71
2023-01-17T06:31:17.502Z,78.90
2023-01-17T06:33:45.266Z,78.73
2023-01-17T06:36:13.009Z,79.00
2023-01-17T06:38:40.290Z,79.39
2023-01-17T06:41:07.464Z,79.45
2023-01-17T06:43:35.303Z,79.93
2023-01-17T06:46:02.466Z,80.17
2023-01-17T06:48:29.720Z,80.19
2023-01-17T06:50:58.286Z,79.86
2023-01-17T06:53:25.509Z,79.91
2023-01-17T06:55:56.248Z,79.88
2023-01-17T06:58:24.130Z,80.15
2023-01-17T07:00:51.647Z,80.52
2023-01-17T07:03:24.106Z,81.25
2023-01-17T07:05:51.532Z,81.38
2023-01-17T07:08:19.726Z,81.13
2023-01-17T07:10:47.652Z,81.14
2023-01-17T07:13:14.894Z,81.10
2023-01-17T07:15:42.424Z,81.05
2023-01-17T07:18:09.703Z,81.32
2023-01-17T07:20:38.803Z,81.41
2023-01-17T07:23:07.103Z,81.75
2023-01-17T07:33:13.598Z,82.89
2023-01-17T07:35:40.848Z,82.74
2023-01-17T07:38:39.192Z,82.96
2023-01-17T07:41:06.888Z,82.64
2023-01-17T07:43:35.787Z,82.92
2023-01-17T07:46:02.827Z,83.02
2023-01-17T07:48:31.047Z,83.11
2023-01-17T07:50:58.867Z,82.93
2023-01-17T07:53:27.137Z,83.03
2023-01-17T07:55:55.502Z,83.08
2023-01-17T07:58:28.149Z,83.18
2023-01-17T08:00:55.564Z,83.06
2023-01-17T08:03:22.809Z,83.12
2023-01-17T08:05:54.361Z,82.94
2023-01-17T08:08:22.141Z,83.00
2023-01-17T08:10:49.889Z,83.16
2023-01-17T08:13:17.242Z,83.33
2023-01-17T14:07:04.657Z,99.01
2023-01-17T14:09:42.196Z,98.94
2023-01-17T14:12:09.404Z,98.68
2023-01-17T14:14:45.537Z,98.41
2023-01-17T14:17:28.562Z,98.11
2023-01-17T14:19:57.935Z,97.47
2023-01-17T14:22:25.137Z,96.95
2023-01-17T14:25:17.782Z,96.57
2023-01-17T14:27:52.247Z,95.99
2023-01-17T14:30:40.363Z,96.02
2023-01-17T14:33:14.957Z,95.43
2023-01-17T14:35:58.173Z,94.98
2023-01-17T14:38:30.023Z,94.88
2023-01-17T14:41:00.280Z,94.56
2023-01-17T14:43:28.878Z,94.53
2023-01-17T14:46:01.182Z,94.17
2023-01-17T14:48:28.495Z,94.00
2023-01-17T14:50:58.987Z,94.07
2023-01-17T14:53:31.826Z,94.21
2023-01-17T14:56:13.639Z,93.78
2023-01-17T14:58:42.450Z,93.92
2023-01-17T15:01:18.039Z,93.81
2023-01-17T15:03:47.453Z,93.81
2023-01-17T15:06:26.048Z,93.77
2023-01-17T15:08:56.091Z,93.58
2023-01-17T15:11:30.023Z,93.48
2023-01-17T15:13:59.348Z,93.58
2023-01-17T15:16:33.847Z,93.83
2023-01-17T15:19:01.562Z,93.78
2023-01-17T15:21:32.917Z,93.68
2023-01-17T15:24:08.540Z,93.72
2023-01-17T15:26:41.020Z,94.11
2023-01-17T15:29:22.737Z,93.95
2023-01-17T15:31:58.820Z,93.83
2023-01-17T15:34:36.587Z,94.24
2023-01-17T15:37:09.034Z,94.56
2023-01-17T15:39:40.825Z,94.35
2023-01-17T15:42:20.484Z,94.18
2023-01-17T15:44:49.163Z,94.67
2023-01-17T15:47:31.584Z,95.05
2023-01-17T15:50:02.064Z,95.21
2023-01-17T15:52:29.333Z,95.60
2023-01-17T15:55:13.430Z,95.82
2023-01-17T15:57:40.828Z,95.51
2023-01-17T16:00:09.524Z,95.62
2023-01-17T16:02:42.905Z,95.79
2023-01-17T16:05:31.364Z,95.55
2023-01-17T16:08:04.522Z,95.49
2023-01-17T16:10:33.910Z,95.38
2023-01-17T16:13:01.971Z,95.24
2023-01-17T16:15:29.439Z,94.95
2023-01-17T16:18:15.885Z,94.82
2023-01-17T16:20:47.540Z,94.69
2023-01-17T16:23:14.791Z,94.94
2023-01-17T16:25:41.971Z,94.56
2023-01-17T16:28:09.502Z,94.64
2023-01-17T23:31:24.036Z,100.00
2023-01-17T23:33:51.440Z,100.00
2023-01-17T23:36:18.695Z,100.00
2023-01-17T23:38:45.740Z,100.00
2023-01-17T23:41:31.651Z,100.00
2023-01-17T23:43:58.899Z,100.00
2023-01-17T23:46:29.512Z,100.00
2023-01-17T23:48:56.578Z,100.00
2023-01-17T23:51:29.960Z,100.00
2023-01-17T23:54:04.785Z,100.00
2023-01-17T23:56:32.077Z,99.91
2023-01-17T23:59:00.728Z,99.82
